sensor_id;sensor_type;location;lat;lon;timestamp;temperature;humidity
32348;DHT22;18821;44.800;10.326;2023-03-16T00:02:15;7.30;31.90
32348;DHT22;18821;44.800;10.326;2023-03-16T00:04:41;7.30;99.90
32348;DHT22;18821;44.800;10.326;2023-03-16T00:07:09;7.20;99.90
32348;DHT22;18821;44.800;10.326;2023-03-16T00:09:36;7.20;13.80
32348;DHT22;18821;44.800;10.326;2023-03-16T00:12:07;7.20;69.30
32348;DHT22;18821;44.800;10.326;2023-03-16T00:14:41;7.10;1.00
32348;DHT22;18821;44.800;10.326;2023-03-16T00:17:10;7.00;1.00
32348;DHT22;18821;44.800;10.326;2023-03-16T00:19:44;7.00;99.90
32348;DHT22;18821;44.800;10.326;2023-03-16T00:22:12;6.90;99.90
32348;DHT22;18821;44.800;10.326;2023-03-16T00:24:40;6.90;1.00
32348;DHT22;18821;44.800;10.326;2023-03-16T00:27:10;6.90;1.00
32348;DHT22;18821;44.800;10.326;2023-03-16T00:29:46;6.90;99.90
32348;DHT22;18821;44.800;10.326;2023-03-16T00:32:17;6.90;5.90
32348;DHT22;18821;44.800;10.326;2023-03-16T00:34:44;6.80;99.90
32348;DHT22;18821;44.800;10.326;2023-03-16T00:37:12;6.80;1.00
32348;DHT22;18821;44.800;10.326;2023-03-16T00:39:44;6.80;99.90
32348;DHT22;18821;44.800;10.326;2023-03-16T00:42:14;6.90;1.00
32348;DHT22;18821;44.800;10.326;2023-03-16T00:44:42;6.90;46.50
32348;DHT22;18821;44.800;10.326;2023-03-16T00:47:11;6.90;99.90
32348;DHT22;18821;44.800;10.326;2023-03-16T00:49:41;6.90;1.00
32348;DHT22;18821;44.800;10.326;2023-03-16T00:52:10;6.90;1.00
32348;DHT22;18821;44.800;10.326;2023-03-16T00:54:44;6.80;1.00
32348;DHT22;18821;44.800;10.326;2023-03-16T00:57:12;6.80;1.00
32348;DHT22;18821;44.800;10.326;2023-03-16T00:59:39;6.80;99.90
32348;DHT22;18821;44.800;10.326;2023-03-16T01:02:07;6.80;99.90
32348;DHT22;18821;44.800;10.326;2023-03-16T01:04:35;6.80;99.90
32348;DHT22;18821;44.800;10.326;2023-03-16T01:07:09;6.80;1.00
32348;DHT22;18821;44.800;10.326;2023-03-16T01:09:38;6.80;1.00
32348;DHT22;18821;44.800;10.326;2023-03-16T01:12:09;6.90;1.00
32348;DHT22;18821;44.800;10.326;2023-03-16T01:14:37;6.90;1.00
32348;DHT22;18821;44.800;10.326;2023-03-16T01:17:05;6.90;1.00
32348;DHT22;18821;44.800;10.326;2023-03-16T01:19:36;6.90;1.00
32348;DHT22;18821;44.800;10.326;2023-03-16T01:22:09;6.90;1.00
32348;DHT22;18821;44.800;10.326;2023-03-16T01:25:02;6.90;1.00
32348;DHT22;18821;44.800;10.326;2023-03-16T01:27:45;6.80;1.00
32348;DHT22;18821;44.800;10.326;2023-03-16T01:30:11;6.70;1.00
32348;DHT22;18821;44.800;10.326;2023-03-16T01:32:38;6.70;1.00
32348;DHT22;18821;44.800;10.326;2023-03-16T01:35:06;6.70;1.00
32348;DHT22;18821;44.800;10.326;2023-03-16T01:37:32;6.60;16.30
32348;DHT22;18821;44.800;10.326;2023-03-16T01:40:06;6.60;99.90
32348;DHT22;18821;44.800;10.326;2023-03-16T01:42:58;6.50;99.90
32348;DHT22;18821;44.800;10.326;2023-03-16T01:51:13;6.30;99.90
32348;DHT22;18821;44.800;10.326;2023-03-16T01:53:43;6.30;99.90
32348;DHT22;18821;44.800;10.326;2023-03-16T01:56:13;6.30;99.90
32348;DHT22;18821;44.800;10.326;2023-03-16T01:58:42;6.20;99.90
32348;DHT22;18821;44.800;10.326;2023-03-16T02:01:10;6.20;99.90
32348;DHT22;18821;44.800;10.326;2023-03-16T02:03:38;6.20;99.90
32348;DHT22;18821;44.800;10.326;2023-03-16T02:06:18;6.20;99.90
32348;DHT22;18821;44.800;10.326;2023-03-16T02:08:50;6.10;99.90
32348;DHT22;18821;44.800;10.326;2023-03-16T02:11:20;6.10;99.90
32348;DHT22;18821;44.800;10.326;2023-03-16T02:14:10;6.10;99.90
32348;DHT22;18821;44.800;10.326;2023-03-16T02:16:37;6.10;1.00
32348;DHT22;18821;44.800;10.326;2023-03-16T02:19:10;6.00;1.00
32348;DHT22;18821;44.800;10.326;2023-03-16T02:21:40;6.00;1.00
32348;DHT22;18821;44.800;10.326;2023-03-16T02:24:08;5.90;1.00
32348;DHT22;18821;44.800;10.326;2023-03-16T02:27:13;5.90;1.00
32348;DHT22;18821;44.800;10.326;2023-03-16T02:30:02;5.90;1.00
32348;DHT22;18821;44.800;10.326;2023-03-16T02:32:37;6.00;1.00
32348;DHT22;18821;44.800;10.326;2023-03-16T02:35:05;6.10;1.00
32348;DHT22;18821;44.800;10.326;2023-03-16T02:37:31;6.10;1.00
32348;DHT22;18821;44.800;10.326;2023-03-16T02:39:59;6.10;1.00
32348;DHT22;18821;44.800;10.326;2023-03-16T02:42:28;6.10;1.00
32348;DHT22;18821;44.800;10.326;2023-03-16T02:44:58;6.00;1.00
32348;DHT22;18821;44.800;10.326;2023-03-16T02:47:41;5.90;1.00
32348;DHT22;18821;44.800;10.326;2023-03-16T02:50:09;6.00;1.00
32348;DHT22;18821;44.800;10.326;2023-03-16T02:52:38;5.90;1.00
32348;DHT22;18821;44.800;10.326;2023-03-16T02:55:06;6.00;1.00
32348;DHT22;18821;44.800;10.326;2023-03-16T02:57:32;6.00;1.00
32348;DHT22;18821;44.800;10.326;2023-03-16T03:00:05;5.90;1.00
32348;DHT22;18821;44.800;10.326;2023-03-16T03:02:38;5.80;1.00
32348;DHT22;18821;44.800;10.326;2023-03-16T03:05:04;5.80;1.00
32348;DHT22;18821;44.800;10.326;2023-03-16T03:07:31;5.80;99.90
32348;DHT22;18821;44.800;10.326;2023-03-16T03:10:02;5.80;99.90
32348;DHT22;18821;44.800;10.326;2023-03-16T03:12:32;5.80;99.90
32348;DHT22;18821;44.800;10.326;2023-03-16T03:14:58;5.80;99.90
32348;DHT22;18821;44.800;10.326;2023-03-16T03:17:24;5.70;99.90
32348;DHT22;18821;44.800;10.326;2023-03-16T03:19:56;5.70;99.90
32348;DHT22;18821;44.800;10.326;2023-03-16T03:22:23;5.70;99.90
32348;DHT22;18821;44.800;10.326;2023-03-16T03:24:51;5.70;99.90
32348;DHT22;18821;44.800;10.326;2023-03-16T03:27:19;5.70;99.90
32348;DHT22;18821;44.800;10.326;2023-03-16T03:29:45;5.60;99.90
32348;DHT22;18821;44.800;10.326;2023-03-16T03:32:11;5.60;99.90
32348;DHT22;18821;44.800;10.326;2023-03-16T03:34:37;5.60;99.90
32348;DHT22;18821;44.800;10.326;2023-03-16T03:37:30;5.60;99.90
32348;DHT22;18821;44.800;10.326;2023-03-16T03:39:56;5.60;99.90
32348;DHT22;18821;44.800;10.326;2023-03-16T03:42:25;5.60;1.00
32348;DHT22;18821;44.800;10.326;2023-03-16T03:44:56;5.60;1.00
32348;DHT22;18821;44.800;10.326;2023-03-16T03:47:22;5.60;1.00
32348;DHT22;18821;44.800;10.326;2023-03-16T03:49:48;5.60;1.00
32348;DHT22;18821;44.800;10.326;2023-03-16T03:52:14;5.60;1.00
32348;DHT22;18821;44.800;10.326;2023-03-16T03:54:41;5.60;1.00
32348;DHT22;18821;44.800;10.326;2023-03-16T03:57:13;5.60;1.00
32348;DHT22;18821;44.800;10.326;2023-03-16T04:02:38;5.50;99.90
32348;DHT22;18821;44.800;10.326;2023-03-16T04:05:08;5.50;99.90
32348;DHT22;18821;44.800;10.326;2023-03-16T04:07:34;5.50;99.90
32348;DHT22;18821;44.800;10.326;2023-03-16T04:10:05;5.50;99.90
32348;DHT22;18821;44.800;10.326;2023-03-16T04:12:38;5.40;99.90
32348;DHT22;18821;44.800;10.326;2023-03-16T04:15:06;5.30;1.00
32348;DHT22;18821;44.800;10.326;2023-03-16T04:17:39;5.20;1.00
32348;DHT22;18821;44.800;10.326;2023-03-16T04:20:09;5.10;99.90
32348;DHT22;18821;44.800;10.326;2023-03-16T04:22:41;5.10;99.90
32348;DHT22;18821;44.800;10.326;2023-03-16T04:25:13;5.10;99.90
32348;DHT22;18821;44.800;10.326;2023-03-16T04:27:40;5.10;99.90
32348;DHT22;18821;44.800;10.326;2023-03-16T04:30:25;5.10;99.90
32348;DHT22;18821;44.800;10.326;2023-03-16T04:32:56;5.10;99.90
32348;DHT22;18821;44.800;10.326;2023-03-16T04:35:26;5.20;99.90
32348;DHT22;18821;44.800;10.326;2023-03-16T04:38:21;5.20;99.90
32348;DHT22;18821;44.800;10.326;2023-03-16T04:41:07;5.20;96.40
32348;DHT22;18821;44.800;10.326;2023-03-16T04:43:37;5.20;28.90
32348;DHT22;18821;44.800;10.326;2023-03-16T04:46:15;5.30;1.00
32348;DHT22;18821;44.800;10.326;2023-03-16T04:49:03;5.30;1.00
32348;DHT22;18821;44.800;10.326;2023-03-16T04:51:29;5.30;1.00
32348;DHT22;18821;44.800;10.326;2023-03-16T04:54:22;5.30;99.90
32348;DHT22;18821;44.800;10.326;2023-03-16T04:56:48;5.30;1.00
32348;DHT22;18821;44.800;10.326;2023-03-16T04:59:43;5.20;1.00
32348;DHT22;18821;44.800;10.326;2023-03-16T05:02:36;5.30;45.80
32348;DHT22;18821;44.800;10.326;2023-03-16T05:05:12;5.20;1.00
32348;DHT22;18821;44.800;10.326;2023-03-16T05:07:42;5.20;1.00
32348;DHT22;18821;44.800;10.326;2023-03-16T05:10:10;5.20;1.00
32348;DHT22;18821;44.800;10.326;2023-03-16T05:12:38;5.10;99.90
32348;DHT22;18821;44.800;10.326;2023-03-16T05:15:06;5.10;99.90
32348;DHT22;18821;44.800;10.326;2023-03-16T05:17:38;5.10;99.90
32348;DHT22;18821;44.800;10.326;2023-03-16T05:20:05;5.10;99.90
32348;DHT22;18821;44.800;10.326;2023-03-16T05:22:44;5.00;1.00
32348;DHT22;18821;44.800;10.326;2023-03-16T05:25:19;5.00;1.00
32348;DHT22;18821;44.800;10.326;2023-03-16T05:27:50;5.00;1.00
32348;DHT22;18821;44.800;10.326;2023-03-16T05:30:32;4.90;1.00
32348;DHT22;18821;44.800;10.326;2023-03-16T05:33:02;4.90;1.00
32348;DHT22;18821;44.800;10.326;2023-03-16T05:35:28;4.90;1.00
32348;DHT22;18821;44.800;10.326;2023-03-16T05:38:00;4.90;1.00
32348;DHT22;18821;44.800;10.326;2023-03-16T05:40:34;4.80;1.00
32348;DHT22;18821;44.800;10.326;2023-03-16T05:43:28;4.80;1.00
32348;DHT22;18821;44.800;10.326;2023-03-16T05:45:54;4.90;3.90
32348;DHT22;18821;44.800;10.326;2023-03-16T05:48:21;5.00;1.00
32348;DHT22;18821;44.800;10.326;2023-03-16T05:51:15;5.20;1.00
32348;DHT22;18821;44.800;10.326;2023-03-16T05:53:41;5.20;1.00
32348;DHT22;18821;44.800;10.326;2023-03-16T05:56:32;5.20;1.00
32348;DHT22;18821;44.800;10.326;2023-03-16T05:59:01;5.40;1.00
32348;DHT22;18821;44.800;10.326;2023-03-16T06:01:47;5.60;99.90
32348;DHT22;18821;44.800;10.326;2023-03-16T06:04:21;5.90;99.90
32348;DHT22;18821;44.800;10.326;2023-03-16T06:06:47;6.20;1.00
32348;DHT22;18821;44.800;10.326;2023-03-16T06:09:18;6.50;1.00
32348;DHT22;18821;44.800;10.326;2023-03-16T06:11:45;6.80;99.90
32348;DHT22;18821;44.800;10.326;2023-03-16T06:14:13;6.90;99.90
32348;DHT22;18821;44.800;10.326;2023-03-16T06:16:40;7.00;23.60
32348;DHT22;18821;44.800;10.326;2023-03-16T06:19:07;7.10;1.00
32348;DHT22;18821;44.800;10.326;2023-03-16T06:21:33;7.30;99.90
32348;DHT22;18821;44.800;10.326;2023-03-16T06:24:06;7.60;1.00
32348;DHT22;18821;44.800;10.326;2023-03-16T06:26:35;7.50;1.00
32348;DHT22;18821;44.800;10.326;2023-03-16T06:29:03;7.70;99.90
32348;DHT22;18821;44.800;10.326;2023-03-16T06:31:31;8.00;99.90
32348;DHT22;18821;44.800;10.326;2023-03-16T06:33:59;8.00;99.90
32348;DHT22;18821;44.800;10.326;2023-03-16T06:36:26;7.70;99.90
32348;DHT22;18821;44.800;10.326;2023-03-16T06:38:56;7.80;98.70
32348;DHT22;18821;44.800;10.326;2023-03-16T06:41:36;7.60;42.00
32348;DHT22;18821;44.800;10.326;2023-03-16T06:44:03;7.30;1.00
32348;DHT22;18821;44.800;10.326;2023-03-16T06:46:32;7.10;99.90
32348;DHT22;18821;44.800;10.326;2023-03-16T06:49:00;6.90;99.90
32348;DHT22;18821;44.800;10.326;2023-03-16T06:51:26;6.90;1.00
32348;DHT22;18821;44.800;10.326;2023-03-16T06:53:53;6.90;1.00
32348;DHT22;18821;44.800;10.326;2023-03-16T06:56:19;6.90;1.00
32348;DHT22;18821;44.800;10.326;2023-03-16T06:58:46;7.00;1.00
32348;DHT22;18821;44.800;10.326;2023-03-16T07:01:12;7.00;90.70
32348;DHT22;18821;44.800;10.326;2023-03-16T07:03:38;7.10;1.00
32348;DHT22;18821;44.800;10.326;2023-03-16T07:06:14;7.30;99.90
32348;DHT22;18821;44.800;10.326;2023-03-16T07:08:41;7.40;1.00
32348;DHT22;18821;44.800;10.326;2023-03-16T07:11:16;7.50;99.90
32348;DHT22;18821;44.800;10.326;2023-03-16T07:13:45;7.50;99.90
32348;DHT22;18821;44.800;10.326;2023-03-16T07:16:15;7.60;99.90
32348;DHT22;18821;44.800;10.326;2023-03-16T07:18:41;7.60;1.00
32348;DHT22;18821;44.800;10.326;2023-03-16T07:21:10;7.70;1.00
32348;DHT22;18821;44.800;10.326;2023-03-16T07:23:37;7.80;1.00
32348;DHT22;18821;44.800;10.326;2023-03-16T07:26:04;7.80;1.00
32348;DHT22;18821;44.800;10.326;2023-03-16T07:28:37;7.80;1.00
32348;DHT22;18821;44.800;10.326;2023-03-16T07:31:05;7.80;1.00
32348;DHT22;18821;44.800;10.326;2023-03-16T07:33:36;7.70;1.00
32348;DHT22;18821;44.800;10.326;2023-03-16T07:36:05;7.80;1.00
32348;DHT22;18821;44.800;10.326;2023-03-16T07:38:34;7.70;99.90
32348;DHT22;18821;44.800;10.326;2023-03-16T07:41:01;7.80;1.00
32348;DHT22;18821;44.800;10.326;2023-03-16T07:43:27;7.80;99.90
32348;DHT22;18821;44.800;10.326;2023-03-16T07:45:55;7.90;1.00
32348;DHT22;18821;44.800;10.326;2023-03-16T07:48:21;8.00;99.90
32348;DHT22;18821;44.800;10.326;2023-03-16T07:50:55;8.10;99.90
32348;DHT22;18821;44.800;10.326;2023-03-16T07:53:21;8.00;1.00
32348;DHT22;18821;44.800;10.326;2023-03-16T07:55:52;8.10;1.00
32348;DHT22;18821;44.800;10.326;2023-03-16T07:58:18;8.10;1.00
32348;DHT22;18821;44.800;10.326;2023-03-16T08:00:46;8.20;99.90
32348;DHT22;18821;44.800;10.326;2023-03-16T08:03:12;8.40;99.90
32348;DHT22;18821;44.800;10.326;2023-03-16T08:05:38;8.60;99.90
32348;DHT22;18821;44.800;10.326;2023-03-16T08:08:10;8.70;99.90
32348;DHT22;18821;44.800;10.326;2023-03-16T08:10:37;8.40;99.90
32348;DHT22;18821;44.800;10.326;2023-03-16T08:13:14;8.60;99.90
32348;DHT22;18821;44.800;10.326;2023-03-16T08:15:48;8.60;99.90
32348;DHT22;18821;44.800;10.326;2023-03-16T08:18:27;8.80;46.10
32348;DHT22;18821;44.800;10.326;2023-03-16T08:20:55;9.00;1.00
32348;DHT22;18821;44.800;10.326;2023-03-16T08:23:23;9.20;1.00
32348;DHT22;18821;44.800;10.326;2023-03-16T08:25:56;9.20;1.00
32348;DHT22;18821;44.800;10.326;2023-03-16T08:28:23;9.40;1.00
32348;DHT22;18821;44.800;10.326;2023-03-16T08:30:52;9.50;1.00
32348;DHT22;18821;44.800;10.326;2023-03-16T08:33:29;9.40;1.00
32348;DHT22;18821;44.800;10.326;2023-03-16T08:35:55;9.40;99.90
32348;DHT22;18821;44.800;10.326;2023-03-16T08:38:21;9.50;99.90
32348;DHT22;18821;44.800;10.326;2023-03-16T08:40:49;9.30;99.90
32348;DHT22;18821;44.800;10.326;2023-03-16T08:43:18;9.40;99.90
32348;DHT22;18821;44.800;10.326;2023-03-16T08:45:45;9.70;99.90
32348;DHT22;18821;44.800;10.326;2023-03-16T08:48:13;9.90;99.90
32348;DHT22;18821;44.800;10.326;2023-03-16T08:50:43;9.90;99.90
32348;DHT22;18821;44.800;10.326;2023-03-16T08:53:10;9.80;99.90
32348;DHT22;18821;44.800;10.326;2023-03-16T08:55:36;10.20;99.90
32348;DHT22;18821;44.800;10.326;2023-03-16T08:58:03;10.50;99.90
32348;DHT22;18821;44.800;10.326;2023-03-16T09:00:29;10.80;91.30
32348;DHT22;18821;44.800;10.326;2023-03-16T09:02:55;11.00;6.00
32348;DHT22;18821;44.800;10.326;2023-03-16T09:05:21;11.10;1.00
32348;DHT22;18821;44.800;10.326;2023-03-16T09:07:47;11.30;1.00
32348;DHT22;18821;44.800;10.326;2023-03-16T09:10:14;11.30;1.00
32348;DHT22;18821;44.800;10.326;2023-03-16T09:12:42;11.50;1.00
32348;DHT22;18821;44.800;10.326;2023-03-16T09:15:09;11.50;1.00
32348;DHT22;18821;44.800;10.326;2023-03-16T09:17:37;11.70;1.00
32348;DHT22;18821;44.800;10.326;2023-03-16T09:20:05;11.80;1.00
32348;DHT22;18821;44.800;10.326;2023-03-16T09:22:34;11.60;1.00
32348;DHT22;18821;44.800;10.326;2023-03-16T09:25:01;11.70;1.00
32348;DHT22;18821;44.800;10.326;2023-03-16T09:27:27;11.80;1.00
32348;DHT22;18821;44.800;10.326;2023-03-16T09:29:53;11.80;1.00
32348;DHT22;18821;44.800;10.326;2023-03-16T09:32:21;11.70;1.00
32348;DHT22;18821;44.800;10.326;2023-03-16T09:34:47;11.40;1.00
32348;DHT22;18821;44.800;10.326;2023-03-16T09:37:13;11.50;1.00
32348;DHT22;18821;44.800;10.326;2023-03-16T09:39:40;11.80;1.00
32348;DHT22;18821;44.800;10.326;2023-03-16T09:42:37;11.90;1.00
32348;DHT22;18821;44.800;10.326;2023-03-16T09:47:34;12.30;1.00
32348;DHT22;18821;44.800;10.326;2023-03-16T09:50:05;12.20;1.00
32348;DHT22;18821;44.800;10.326;2023-03-16T09:55:30;12.10;1.00
32348;DHT22;18821;44.800;10.326;2023-03-16T09:57:58;12.20;1.00
32348;DHT22;18821;44.800;10.326;2023-03-16T10:00:33;12.40;1.00
32348;DHT22;18821;44.800;10.326;2023-03-16T10:05:40;12.70;1.00
32348;DHT22;18821;44.800;10.326;2023-03-16T10:08:23;12.80;1.00
32348;DHT22;18821;44.800;10.326;2023-03-16T10:16:20;12.60;1.00
32348;DHT22;18821;44.800;10.326;2023-03-16T10:18:51;12.80;1.00
32348;DHT22;18821;44.800;10.326;2023-03-16T10:21:18;12.80;1.00
32348;DHT22;18821;44.800;10.326;2023-03-16T10:23:46;13.10;1.00
32348;DHT22;18821;44.800;10.326;2023-03-16T10:26:22;13.20;1.00
32348;DHT22;18821;44.800;10.326;2023-03-16T10:28:50;13.10;1.00
32348;DHT22;18821;44.800;10.326;2023-03-16T10:31:20;13.20;1.00
32348;DHT22;18821;44.800;10.326;2023-03-16T10:33:51;13.40;1.00
32348;DHT22;18821;44.800;10.326;2023-03-16T10:36:30;13.50;1.00
32348;DHT22;18821;44.800;10.326;2023-03-16T10:39:04;13.40;1.00
32348;DHT22;18821;44.800;10.326;2023-03-16T10:41:33;13.30;1.00
32348;DHT22;18821;44.800;10.326;2023-03-16T10:46:46;13.50;1.00
32348;DHT22;18821;44.800;10.326;2023-03-16T10:49:33;13.40;1.00
32348;DHT22;18821;44.800;10.326;2023-03-16T10:52:07;13.60;1.00
32348;DHT22;18821;44.800;10.326;2023-03-16T10:54:38;13.80;1.00
32348;DHT22;18821;44.800;10.326;2023-03-16T10:57:32;14.00;99.90
32348;DHT22;18821;44.800;10.326;2023-03-16T11:00:10;14.10;99.90
32348;DHT22;18821;44.800;10.326;2023-03-16T11:02:47;14.00;1.00
32348;DHT22;18821;44.800;10.326;2023-03-16T11:08:11;14.00;1.00
32348;DHT22;18821;44.800;10.326;2023-03-16T11:10:56;13.90;1.00
32348;DHT22;18821;44.800;10.326;2023-03-16T11:13:34;14.10;1.00
32348;DHT22;18821;44.800;10.326;2023-03-16T11:18:49;14.40;99.90
32348;DHT22;18821;44.800;10.326;2023-03-16T11:23:53;14.50;99.90
32348;DHT22;18821;44.800;10.326;2023-03-16T11:26:33;14.50;99.90
32348;DHT22;18821;44.800;10.326;2023-03-16T11:29:21;14.60;99.90
32348;DHT22;18821;44.800;10.326;2023-03-16T11:31:53;14.60;99.90
32348;DHT22;18821;44.800;10.326;2023-03-16T11:34:28;14.70;99.90
32348;DHT22;18821;44.800;10.326;2023-03-16T11:36:56;14.60;99.90
32348;DHT22;18821;44.800;10.326;2023-03-16T11:53:56;14.90;99.90
32348;DHT22;18821;44.800;10.326;2023-03-16T11:56:51;15.00;99.90
32348;DHT22;18821;44.800;10.326;2023-03-16T12:11:01;15.00;99.90
32348;DHT22;18821;44.800;10.326;2023-03-16T12:16:34;15.00;99.90
32348;DHT22;18821;44.800;10.326;2023-03-16T12:19:17;15.20;99.90
32348;DHT22;18821;44.800;10.326;2023-03-16T12:21:51;15.30;99.90
32348;DHT22;18821;44.800;10.326;2023-03-16T12:24:24;15.10;99.90
32348;DHT22;18821;44.800;10.326;2023-03-16T12:26:52;15.10;99.90
32348;DHT22;18821;44.800;10.326;2023-03-16T12:34:53;15.30;95.20
32348;DHT22;18821;44.800;10.326;2023-03-16T12:45:46;15.90;87.50
32348;DHT22;18821;44.800;10.326;2023-03-16T12:48:27;16.00;86.60
32348;DHT22;18821;44.800;10.326;2023-03-16T12:51:00;15.90;76.60
32348;DHT22;18821;44.800;10.326;2023-03-16T12:56:25;15.60;62.80
32348;DHT22;18821;44.800;10.326;2023-03-16T12:58:55;15.60;59.90
32348;DHT22;18821;44.800;10.326;2023-03-16T13:01:27;15.70;59.20
32348;DHT22;18821;44.800;10.326;2023-03-16T13:04:21;15.70;51.30
32348;DHT22;18821;44.800;10.326;2023-03-16T13:07:01;15.80;50.70
32348;DHT22;18821;44.800;10.326;2023-03-16T13:09:29;15.40;48.90
32348;DHT22;18821;44.800;10.326;2023-03-16T13:12:00;15.50;53.00
32348;DHT22;18821;44.800;10.326;2023-03-16T13:14:42;15.50;53.20
32348;DHT22;18821;44.800;10.326;2023-03-16T13:19:41;15.80;54.80
32348;DHT22;18821;44.800;10.326;2023-03-16T13:27:50;15.90;60.30
32348;DHT22;18821;44.800;10.326;2023-03-16T13:30:25;15.90;54.60
32348;DHT22;18821;44.800;10.326;2023-03-16T13:32:59;15.80;49.10
32348;DHT22;18821;44.800;10.326;2023-03-16T13:35:29;15.70;63.40
32348;DHT22;18821;44.800;10.326;2023-03-16T13:38:03;15.80;45.80
32348;DHT22;18821;44.800;10.326;2023-03-16T13:40:34;15.70;48.40
32348;DHT22;18821;44.800;10.326;2023-03-16T13:43:02;15.80;48.90
32348;DHT22;18821;44.800;10.326;2023-03-16T13:45:33;15.80;48.90
32348;DHT22;18821;44.800;10.326;2023-03-16T13:48:02;15.60;47.40
32348;DHT22;18821;44.800;10.326;2023-03-16T13:50:34;15.60;57.00
32348;DHT22;18821;44.800;10.326;2023-03-16T13:53:09;15.40;46.00
32348;DHT22;18821;44.800;10.326;2023-03-16T13:55:36;15.50;47.00
32348;DHT22;18821;44.800;10.326;2023-03-16T13:58:03;15.30;46.20
32348;DHT22;18821;44.800;10.326;2023-03-16T14:00:32;15.40;46.00
32348;DHT22;18821;44.800;10.326;2023-03-16T14:03:02;15.40;45.20
32348;DHT22;18821;44.800;10.326;2023-03-16T14:05:32;15.60;45.90
32348;DHT22;18821;44.800;10.326;2023-03-16T14:08:00;15.60;46.20
32348;DHT22;18821;44.800;10.326;2023-03-16T14:10:31;15.60;44.30
32348;DHT22;18821;44.800;10.326;2023-03-16T14:13:31;15.70;42.90
32348;DHT22;18821;44.800;10.326;2023-03-16T14:16:13;15.70;41.90
32348;DHT22;18821;44.800;10.326;2023-03-16T14:18:45;15.90;40.60
32348;DHT22;18821;44.800;10.326;2023-03-16T14:21:21;15.70;36.00
32348;DHT22;18821;44.800;10.326;2023-03-16T14:23:58;15.70;37.50
32348;DHT22;18821;44.800;10.326;2023-03-16T14:26:25;15.60;36.20
32348;DHT22;18821;44.800;10.326;2023-03-16T14:31:38;15.50;34.60
32348;DHT22;18821;44.800;10.326;2023-03-16T14:34:20;15.60;36.50
32348;DHT22;18821;44.800;10.326;2023-03-16T14:36:47;15.50;34.60
32348;DHT22;18821;44.800;10.326;2023-03-16T14:39:15;15.50;36.40
32348;DHT22;18821;44.800;10.326;2023-03-16T14:41:48;15.50;39.70
32348;DHT22;18821;44.800;10.326;2023-03-16T14:44:34;15.40;39.20
32348;DHT22;18821;44.800;10.326;2023-03-16T14:47:03;15.30;40.50
32348;DHT22;18821;44.800;10.326;2023-03-16T14:49:31;15.40;41.40
32348;DHT22;18821;44.800;10.326;2023-03-16T14:52:00;15.60;41.30
32348;DHT22;18821;44.800;10.326;2023-03-16T14:54:28;15.70;41.50
32348;DHT22;18821;44.800;10.326;2023-03-16T14:56:58;15.80;41.10
32348;DHT22;18821;44.800;10.326;2023-03-16T14:59:25;15.70;40.00
32348;DHT22;18821;44.800;10.326;2023-03-16T15:01:51;15.70;38.10
32348;DHT22;18821;44.800;10.326;2023-03-16T15:04:28;15.60;35.90
32348;DHT22;18821;44.800;10.326;2023-03-16T15:06:56;15.40;33.40
32348;DHT22;18821;44.800;10.326;2023-03-16T15:09:35;15.30;34.90
32348;DHT22;18821;44.800;10.326;2023-03-16T15:12:02;15.20;49.10
32348;DHT22;18821;44.800;10.326;2023-03-16T15:14:27;15.30;34.20
32348;DHT22;18821;44.800;10.326;2023-03-16T15:17:12;15.20;49.10
32348;DHT22;18821;44.800;10.326;2023-03-16T15:19:38;15.00;33.00
32348;DHT22;18821;44.800;10.326;2023-03-16T15:22:04;14.90;33.60
32348;DHT22;18821;44.800;10.326;2023-03-16T15:24:32;15.00;35.30
32348;DHT22;18821;44.800;10.326;2023-03-16T15:26:58;15.00;33.50
32348;DHT22;18821;44.800;10.326;2023-03-16T15:29:24;15.00;33.00
32348;DHT22;18821;44.800;10.326;2023-03-16T15:31:51;14.90;33.60
32348;DHT22;18821;44.800;10.326;2023-03-16T15:34:44;14.90;33.00
32348;DHT22;18821;44.800;10.326;2023-03-16T15:37:18;14.90;32.20
32348;DHT22;18821;44.800;10.326;2023-03-16T15:39:45;14.90;33.90
32348;DHT22;18821;44.800;10.326;2023-03-16T15:42:16;14.90;46.60
32348;DHT22;18821;44.800;10.326;2023-03-16T15:44:45;15.00;32.40
32348;DHT22;18821;44.800;10.326;2023-03-16T15:47:11;14.90;32.00
32348;DHT22;18821;44.800;10.326;2023-03-16T15:49:37;14.70;30.50
32348;DHT22;18821;44.800;10.326;2023-03-16T15:52:29;14.60;30.20
32348;DHT22;18821;44.800;10.326;2023-03-16T15:54:55;14.60;30.20
32348;DHT22;18821;44.800;10.326;2023-03-16T15:57:23;14.60;28.80
32348;DHT22;18821;44.800;10.326;2023-03-16T15:59:50;14.50;30.00
32348;DHT22;18821;44.800;10.326;2023-03-16T16:04:52;14.50;31.00
32348;DHT22;18821;44.800;10.326;2023-03-16T16:07:19;14.50;30.90
32348;DHT22;18821;44.800;10.326;2023-03-16T16:09:48;14.50;33.10
32348;DHT22;18821;44.800;10.326;2023-03-16T16:12:15;14.50;32.60
32348;DHT22;18821;44.800;10.326;2023-03-16T16:14:41;14.50;34.70
32348;DHT22;18821;44.800;10.326;2023-03-16T16:17:11;14.50;35.10
32348;DHT22;18821;44.800;10.326;2023-03-16T16:19:40;14.50;34.00
32348;DHT22;18821;44.800;10.326;2023-03-16T16:22:12;14.40;33.90
32348;DHT22;18821;44.800;10.326;2023-03-16T16:24:38;14.30;34.80
32348;DHT22;18821;44.800;10.326;2023-03-16T16:27:07;14.30;36.30
32348;DHT22;18821;44.800;10.326;2023-03-16T16:29:35;14.20;38.00
32348;DHT22;18821;44.800;10.326;2023-03-16T16:32:19;14.10;35.90
32348;DHT22;18821;44.800;10.326;2023-03-16T16:34:46;14.00;36.30
32348;DHT22;18821;44.800;10.326;2023-03-16T16:37:12;14.00;38.00
32348;DHT22;18821;44.800;10.326;2023-03-16T16:39:39;13.90;40.70
32348;DHT22;18821;44.800;10.326;2023-03-16T16:42:05;13.90;42.50
32348;DHT22;18821;44.800;10.326;2023-03-16T16:44:34;13.80;44.00
32348;DHT22;18821;44.800;10.326;2023-03-16T16:47:00;13.80;47.60
32348;DHT22;18821;44.800;10.326;2023-03-16T16:49:30;13.70;50.50
32348;DHT22;18821;44.800;10.326;2023-03-16T16:51:57;13.60;56.40
32348;DHT22;18821;44.800;10.326;2023-03-16T16:54:28;13.60;60.30
32348;DHT22;18821;44.800;10.326;2023-03-16T16:56:56;13.50;60.90
32348;DHT22;18821;44.800;10.326;2023-03-16T16:59:31;13.50;60.90
32348;DHT22;18821;44.800;10.326;2023-03-16T17:01:59;13.40;60.80
32348;DHT22;18821;44.800;10.326;2023-03-16T17:04:28;13.30;65.10
32348;DHT22;18821;44.800;10.326;2023-03-16T17:06:56;13.20;75.10
32348;DHT22;18821;44.800;10.326;2023-03-16T17:09:24;13.10;80.80
32348;DHT22;18821;44.800;10.326;2023-03-16T17:11:52;13.00;87.50
32348;DHT22;18821;44.800;10.326;2023-03-16T17:14:21;13.00;91.20
32348;DHT22;18821;44.800;10.326;2023-03-16T17:16:48;12.90;93.90
32348;DHT22;18821;44.800;10.326;2023-03-16T17:21:43;12.80;99.00
32348;DHT22;18821;44.800;10.326;2023-03-16T17:24:10;12.70;99.90
32348;DHT22;18821;44.800;10.326;2023-03-16T17:26:41;12.70;99.90
32348;DHT22;18821;44.800;10.326;2023-03-16T17:29:24;12.60;99.90
32348;DHT22;18821;44.800;10.326;2023-03-16T17:31:51;12.50;99.90